sensor_id;sensor_type;location;lat;lon;timestamp;P1;durP1;ratioP1;P2;durP2;ratioP2
74543;SDS011;63016;55.030;38.710;2024-03-02T00:00:15;43.97;;;17.25;;
74543;SDS011;63016;55.030;38.710;2024-03-02T00:02:45;47.10;;;18.55;;
74543;SDS011;63016;55.030;38.710;2024-03-02T00:05:12;44.25;;;18.42;;
74543;SDS011;63016;55.030;38.710;2024-03-02T00:07:43;51.25;;;18.52;;
74543;SDS011;63016;55.030;38.710;2024-03-02T00:10:35;49.25;;;17.67;;
74543;SDS011;63016;55.030;38.710;2024-03-02T00:13:04;45.28;;;17.05;;
74543;SDS011;63016;55.030;38.710;2024-03-02T00:15:40;46.58;;;16.55;;
74543;SDS011;63016;55.030;38.710;2024-03-02T00:18:10;50.80;;;18.13;;
74543;SDS011;63016;55.030;38.710;2024-03-02T00:20:37;47.85;;;16.95;;
74543;SDS011;63016;55.030;38.710;2024-03-02T00:23:04;48.25;;;18.40;;
74543;SDS011;63016;55.030;38.710;2024-03-02T00:28:10;45.03;;;18.00;;
74543;SDS011;63016;55.030;38.710;2024-03-02T00:31:02;47.92;;;18.13;;
74543;SDS011;63016;55.030;38.710;2024-03-02T00:33:36;47.45;;;19.10;;
74543;SDS011;63016;55.030;38.710;2024-03-02T00:36:05;46.72;;;17.90;;
74543;SDS011;63016;55.030;38.710;2024-03-02T00:38:32;52.95;;;17.98;;
74543;SDS011;63016;55.030;38.710;2024-03-02T00:40:59;48.38;;;17.90;;
74543;SDS011;63016;55.030;38.710;2024-03-02T00:46:16;48.63;;;18.45;;
74543;SDS011;63016;55.030;38.710;2024-03-02T00:49:02;50.13;;;17.98;;
74543;SDS011;63016;55.030;38.710;2024-03-02T00:51:30;48.13;;;18.08;;
74543;SDS011;63016;55.030;38.710;2024-03-02T00:54:01;54.10;;;18.80;;
74543;SDS011;63016;55.030;38.710;2024-03-02T00:56:29;43.05;;;16.15;;
74543;SDS011;63016;55.030;38.710;2024-03-02T00:58:55;47.38;;;17.30;;
74543;SDS011;63016;55.030;38.710;2024-03-02T01:01:21;46.53;;;18.02;;
74543;SDS011;63016;55.030;38.710;2024-03-02T01:03:47;47.75;;;18.63;;
74543;SDS011;63016;55.030;38.710;2024-03-02T01:06:16;46.40;;;18.02;;
74543;SDS011;63016;55.030;38.710;2024-03-02T01:08:42;50.00;;;18.42;;
74543;SDS011;63016;55.030;38.710;2024-03-02T01:11:08;45.45;;;16.80;;
74543;SDS011;63016;55.030;38.710;2024-03-02T01:13:34;48.92;;;17.55;;
74543;SDS011;63016;55.030;38.710;2024-03-02T01:16:00;50.40;;;19.75;;
74543;SDS011;63016;55.030;38.710;2024-03-02T01:18:27;45.80;;;18.00;;
74543;SDS011;63016;55.030;38.710;2024-03-02T01:20:52;50.03;;;17.48;;
74543;SDS011;63016;55.030;38.710;2024-03-02T01:23:20;50.17;;;18.60;;
74543;SDS011;63016;55.030;38.710;2024-03-02T01:25:47;48.28;;;18.23;;
74543;SDS011;63016;55.030;38.710;2024-03-02T01:28:13;51.13;;;18.40;;
74543;SDS011;63016;55.030;38.710;2024-03-02T01:30:39;40.95;;;17.63;;
74543;SDS011;63016;55.030;38.710;2024-03-02T01:33:04;50.45;;;18.60;;
74543;SDS011;63016;55.030;38.710;2024-03-02T01:35:30;48.30;;;19.23;;
74543;SDS011;63016;55.030;38.710;2024-03-02T01:37:56;47.75;;;17.40;;
74543;SDS011;63016;55.030;38.710;2024-03-02T01:40:22;46.90;;;18.83;;
74543;SDS011;63016;55.030;38.710;2024-03-02T01:42:51;53.03;;;17.38;;
74543;SDS011;63016;55.030;38.710;2024-03-02T01:45:19;51.60;;;18.92;;
74543;SDS011;63016;55.030;38.710;2024-03-02T01:47:45;46.08;;;18.67;;
74543;SDS011;63016;55.030;38.710;2024-03-02T01:50:11;42.67;;;17.88;;
74543;SDS011;63016;55.030;38.710;2024-03-02T01:52:37;47.05;;;18.20;;
74543;SDS011;63016;55.030;38.710;2024-03-02T01:55:03;47.25;;;18.35;;
74543;SDS011;63016;55.030;38.710;2024-03-02T01:57:32;47.38;;;17.45;;
74543;SDS011;63016;55.030;38.710;2024-03-02T01:59:59;45.65;;;18.42;;
74543;SDS011;63016;55.030;38.710;2024-03-02T02:02:25;50.50;;;18.92;;
74543;SDS011;63016;55.030;38.710;2024-03-02T02:04:51;48.95;;;20.02;;
74543;SDS011;63016;55.030;38.710;2024-03-02T02:07:17;50.88;;;18.48;;
74543;SDS011;63016;55.030;38.710;2024-03-02T02:09:43;48.25;;;19.35;;
74543;SDS011;63016;55.030;38.710;2024-03-02T02:12:11;50.22;;;19.23;;
74543;SDS011;63016;55.030;38.710;2024-03-02T02:14:37;56.78;;;19.25;;
74543;SDS011;63016;55.030;38.710;2024-03-02T02:17:05;48.88;;;18.85;;
74543;SDS011;63016;55.030;38.710;2024-03-02T02:19:30;47.92;;;18.92;;
74543;SDS011;63016;55.030;38.710;2024-03-02T02:21:56;50.55;;;19.52;;
74543;SDS011;63016;55.030;38.710;2024-03-02T02:24:21;56.60;;;19.60;;
74543;SDS011;63016;55.030;38.710;2024-03-02T02:26:47;53.08;;;19.67;;
74543;SDS011;63016;55.030;38.710;2024-03-02T02:29:12;49.58;;;19.42;;
74543;SDS011;63016;55.030;38.710;2024-03-02T02:31:41;50.55;;;18.15;;
74543;SDS011;63016;55.030;38.710;2024-03-02T02:34:07;49.40;;;19.58;;
74543;SDS011;63016;55.030;38.710;2024-03-02T02:36:34;54.85;;;19.42;;
74543;SDS011;63016;55.030;38.710;2024-03-02T02:39:04;51.28;;;18.95;;
74543;SDS011;63016;55.030;38.710;2024-03-02T02:41:32;60.90;;;21.73;;
74543;SDS011;63016;55.030;38.710;2024-03-02T02:43:57;64.18;;;21.85;;
74543;SDS011;63016;55.030;38.710;2024-03-02T02:46:23;82.07;;;25.85;;
74543;SDS011;63016;55.030;38.710;2024-03-02T02:48:48;82.32;;;26.40;;
74543;SDS011;63016;55.030;38.710;2024-03-02T02:51:16;87.82;;;28.17;;
74543;SDS011;63016;55.030;38.710;2024-03-02T02:53:42;88.43;;;26.52;;
74543;SDS011;63016;55.030;38.710;2024-03-02T02:56:07;100.82;;;29.35;;
74543;SDS011;63016;55.030;38.710;2024-03-02T02:58:33;96.78;;;29.60;;
74543;SDS011;63016;55.030;38.710;2024-03-02T03:00:58;103.10;;;33.13;;
74543;SDS011;63016;55.030;38.710;2024-03-02T03:03:24;129.07;;;35.42;;
74543;SDS011;63016;55.030;38.710;2024-03-02T03:05:49;104.95;;;32.70;;
74543;SDS011;63016;55.030;38.710;2024-03-02T03:08:15;98.35;;;32.90;;
74543;SDS011;63016;55.030;38.710;2024-03-02T03:10:43;103.25;;;31.73;;
74543;SDS011;63016;55.030;38.710;2024-03-02T03:13:09;112.72;;;35.17;;
74543;SDS011;63016;55.030;38.710;2024-03-02T03:15:35;105.05;;;32.80;;
74543;SDS011;63016;55.030;38.710;2024-03-02T03:18:04;90.93;;;30.85;;
74543;SDS011;63016;55.030;38.710;2024-03-02T03:20:30;100.38;;;33.20;;
74543;SDS011;63016;55.030;38.710;2024-03-02T03:22:56;100.68;;;32.95;;
74543;SDS011;63016;55.030;38.710;2024-03-02T03:25:22;104.20;;;35.17;;
74543;SDS011;63016;55.030;38.710;2024-03-02T03:27:48;100.45;;;33.58;;
74543;SDS011;63016;55.030;38.710;2024-03-02T03:30:14;109.35;;;34.75;;
74543;SDS011;63016;55.030;38.710;2024-03-02T03:32:40;103.05;;;35.13;;
74543;SDS011;63016;55.030;38.710;2024-03-02T03:35:06;92.25;;;32.60;;
74543;SDS011;63016;55.030;38.710;2024-03-02T03:37:32;84.25;;;31.05;;
74543;SDS011;63016;55.030;38.710;2024-03-02T03:40:04;82.97;;;29.60;;
74543;SDS011;63016;55.030;38.710;2024-03-02T03:42:36;95.13;;;32.40;;
74543;SDS011;63016;55.030;38.710;2024-03-02T03:45:02;79.68;;;28.60;;
74543;SDS011;63016;55.030;38.710;2024-03-02T03:47:28;78.80;;;27.00;;
74543;SDS011;63016;55.030;38.710;2024-03-02T03:49:54;78.68;;;27.35;;
74543;SDS011;63016;55.030;38.710;2024-03-02T03:52:19;82.85;;;27.85;;
74543;SDS011;63016;55.030;38.710;2024-03-02T03:54:46;85.05;;;28.92;;
74543;SDS011;63016;55.030;38.710;2024-03-02T03:57:12;90.75;;;28.85;;
74543;SDS011;63016;55.030;38.710;2024-03-02T03:59:37;91.13;;;28.13;;
74543;SDS011;63016;55.030;38.710;2024-03-02T04:02:03;92.30;;;30.40;;
74543;SDS011;63016;55.030;38.710;2024-03-02T04:04:29;97.85;;;31.02;;
74543;SDS011;63016;55.030;38.710;2024-03-02T04:06:55;102.00;;;31.85;;
74543;SDS011;63016;55.030;38.710;2024-03-02T04:09:20;109.20;;;32.15;;
74543;SDS011;63016;55.030;38.710;2024-03-02T04:11:46;111.22;;;32.67;;
74543;SDS011;63016;55.030;38.710;2024-03-02T04:14:11;116.63;;;34.22;;
74543;SDS011;63016;55.030;38.710;2024-03-02T04:16:37;114.30;;;34.70;;
74543;SDS011;63016;55.030;38.710;2024-03-02T04:19:04;116.38;;;33.55;;
74543;SDS011;63016;55.030;38.710;2024-03-02T04:21:29;115.40;;;34.97;;
74543;SDS011;63016;55.030;38.710;2024-03-02T04:23:55;116.45;;;33.65;;
74543;SDS011;63016;55.030;38.710;2024-03-02T04:26:24;118.05;;;34.08;;
74543;SDS011;63016;55.030;38.710;2024-03-02T04:28:53;129.98;;;36.30;;
74543;SDS011;63016;55.030;38.710;2024-03-02T04:31:19;137.30;;;36.50;;
74543;SDS011;63016;55.030;38.710;2024-03-02T04:33:45;144.90;;;37.72;;
74543;SDS011;63016;55.030;38.710;2024-03-02T04:36:10;138.35;;;39.22;;
74543;SDS011;63016;55.030;38.710;2024-03-02T04:38:37;138.50;;;36.78;;
74543;SDS011;63016;55.030;38.710;2024-03-02T04:41:04;138.85;;;39.10;;
74543;SDS011;63016;55.030;38.710;2024-03-02T04:43:33;134.05;;;36.05;;
74543;SDS011;63016;55.030;38.710;2024-03-02T04:46:00;119.30;;;34.67;;
74543;SDS011;63016;55.030;38.710;2024-03-02T04:48:25;112.63;;;33.97;;
74543;SDS011;63016;55.030;38.710;2024-03-02T04:50:51;108.43;;;31.70;;
74543;SDS011;63016;55.030;38.710;2024-03-02T04:53:17;111.10;;;32.22;;
74543;SDS011;63016;55.030;38.710;2024-03-02T04:55:43;94.15;;;29.42;;
74543;SDS011;63016;55.030;38.710;2024-03-02T04:58:08;92.05;;;28.63;;
74543;SDS011;63016;55.030;38.710;2024-03-02T05:00:34;77.82;;;27.45;;
74543;SDS011;63016;55.030;38.710;2024-03-02T05:03:00;76.78;;;25.27;;
74543;SDS011;63016;55.030;38.710;2024-03-02T05:05:26;64.68;;;24.33;;
74543;SDS011;63016;55.030;38.710;2024-03-02T05:07:51;68.65;;;22.17;;
74543;SDS011;63016;55.030;38.710;2024-03-02T05:10:17;63.75;;;23.95;;
74543;SDS011;63016;55.030;38.710;2024-03-02T05:12:43;68.60;;;23.52;;
74543;SDS011;63016;55.030;38.710;2024-03-02T05:15:09;66.38;;;23.77;;
74543;SDS011;63016;55.030;38.710;2024-03-02T05:17:35;67.47;;;24.52;;
74543;SDS011;63016;55.030;38.710;2024-03-02T05:20:03;68.68;;;23.88;;
74543;SDS011;63016;55.030;38.710;2024-03-02T05:22:29;58.30;;;22.30;;
74543;SDS011;63016;55.030;38.710;2024-03-02T05:24:55;56.67;;;22.05;;
74543;SDS011;63016;55.030;38.710;2024-03-02T05:27:21;68.18;;;24.73;;
74543;SDS011;63016;55.030;38.710;2024-03-02T05:29:47;63.22;;;23.95;;
74543;SDS011;63016;55.030;38.710;2024-03-02T05:32:13;63.90;;;23.70;;
74543;SDS011;63016;55.030;38.710;2024-03-02T05:34:38;67.85;;;23.27;;
74543;SDS011;63016;55.030;38.710;2024-03-02T05:37:04;67.57;;;25.27;;
74543;SDS011;63016;55.030;38.710;2024-03-02T05:39:30;67.47;;;25.20;;
74543;SDS011;63016;55.030;38.710;2024-03-02T05:41:55;61.78;;;23.73;;
74543;SDS011;63016;55.030;38.710;2024-03-02T05:44:21;63.30;;;24.30;;
74543;SDS011;63016;55.030;38.710;2024-03-02T05:46:47;62.25;;;24.38;;
74543;SDS011;63016;55.030;38.710;2024-03-02T05:49:13;64.95;;;24.40;;
74543;SDS011;63016;55.030;38.710;2024-03-02T05:51:38;65.70;;;24.30;;
74543;SDS011;63016;55.030;38.710;2024-03-02T05:54:04;65.57;;;24.98;;
74543;SDS011;63016;55.030;38.710;2024-03-02T05:56:29;65.10;;;23.70;;
74543;SDS011;63016;55.030;38.710;2024-03-02T05:58:55;67.13;;;23.90;;
74543;SDS011;63016;55.030;38.710;2024-03-02T06:04:05;68.57;;;25.38;;
74543;SDS011;63016;55.030;38.710;2024-03-02T06:06:30;71.28;;;26.35;;
74543;SDS011;63016;55.030;38.710;2024-03-02T06:08:59;72.55;;;26.08;;
74543;SDS011;63016;55.030;38.710;2024-03-02T06:11:32;67.07;;;24.52;;
74543;SDS011;63016;55.030;38.710;2024-03-02T06:13:57;67.10;;;25.27;;
74543;SDS011;63016;55.030;38.710;2024-03-02T06:16:23;75.30;;;27.52;;
74543;SDS011;63016;55.030;38.710;2024-03-02T06:18:48;77.00;;;25.95;;
74543;SDS011;63016;55.030;38.710;2024-03-02T06:21:14;66.20;;;25.08;;
74543;SDS011;63016;55.030;38.710;2024-03-02T06:23:39;66.13;;;25.15;;
74543;SDS011;63016;55.030;38.710;2024-03-02T06:26:05;66.30;;;23.85;;
74543;SDS011;63016;55.030;38.710;2024-03-02T06:28:30;68.18;;;25.92;;
74543;SDS011;63016;55.030;38.710;2024-03-02T06:30:56;68.70;;;26.92;;
74543;SDS011;63016;55.030;38.710;2024-03-02T06:33:21;62.45;;;24.00;;
74543;SDS011;63016;55.030;38.710;2024-03-02T06:35:47;70.00;;;25.30;;
74543;SDS011;63016;55.030;38.710;2024-03-02T06:38:14;64.78;;;25.70;;
74543;SDS011;63016;55.030;38.710;2024-03-02T06:40:39;71.10;;;26.98;;
74543;SDS011;63016;55.030;38.710;2024-03-02T06:43:05;74.90;;;27.38;;
74543;SDS011;63016;55.030;38.710;2024-03-02T06:45:31;72.63;;;26.60;;
74543;SDS011;63016;55.030;38.710;2024-03-02T06:47:58;69.07;;;26.50;;
74543;SDS011;63016;55.030;38.710;2024-03-02T06:50:24;65.13;;;25.50;;
74543;SDS011;63016;55.030;38.710;2024-03-02T06:52:50;69.97;;;25.92;;
74543;SDS011;63016;55.030;38.710;2024-03-02T06:55:15;65.30;;;25.02;;
74543;SDS011;63016;55.030;38.710;2024-03-02T06:57:41;67.85;;;26.27;;
74543;SDS011;63016;55.030;38.710;2024-03-02T07:00:06;73.70;;;27.40;;
74543;SDS011;63016;55.030;38.710;2024-03-02T07:02:34;69.95;;;26.27;;
74543;SDS011;63016;55.030;38.710;2024-03-02T07:05:01;68.47;;;24.17;;
74543;SDS011;63016;55.030;38.710;2024-03-02T07:07:27;65.20;;;25.58;;
74543;SDS011;63016;55.030;38.710;2024-03-02T07:09:53;65.63;;;25.85;;
74543;SDS011;63016;55.030;38.710;2024-03-02T07:12:18;70.13;;;26.23;;
74543;SDS011;63016;55.030;38.710;2024-03-02T07:14:44;64.13;;;23.75;;
74543;SDS011;63016;55.030;38.710;2024-03-02T07:17:27;65.30;;;24.58;;
74543;SDS011;63016;55.030;38.710;2024-03-02T07:19:53;61.80;;;25.10;;
74543;SDS011;63016;55.030;38.710;2024-03-02T07:22:19;63.90;;;24.98;;
74543;SDS011;63016;55.030;38.710;2024-03-02T07:24:44;63.20;;;24.60;;
74543;SDS011;63016;55.030;38.710;2024-03-02T07:27:14;61.28;;;24.13;;
74543;SDS011;63016;55.030;38.710;2024-03-02T07:29:40;63.60;;;24.30;;
74543;SDS011;63016;55.030;38.710;2024-03-02T07:32:06;57.53;;;21.92;;
74543;SDS011;63016;55.030;38.710;2024-03-02T07:34:33;61.88;;;24.45;;
74543;SDS011;63016;55.030;38.710;2024-03-02T07:36:58;58.10;;;23.77;;
74543;SDS011;63016;55.030;38.710;2024-03-02T07:39:24;60.00;;;23.10;;
74543;SDS011;63016;55.030;38.710;2024-03-02T07:41:50;59.13;;;24.90;;
74543;SDS011;63016;55.030;38.710;2024-03-02T07:44:16;56.17;;;23.40;;
74543;SDS011;63016;55.030;38.710;2024-03-02T07:46:44;61.78;;;25.15;;
74543;SDS011;63016;55.030;38.710;2024-03-02T07:49:11;58.15;;;23.83;;
74543;SDS011;63016;55.030;38.710;2024-03-02T07:51:39;61.47;;;24.20;;
74543;SDS011;63016;55.030;38.710;2024-03-02T07:54:04;58.83;;;25.70;;
74543;SDS011;63016;55.030;38.710;2024-03-02T07:56:30;57.90;;;24.63;;
74543;SDS011;63016;55.030;38.710;2024-03-02T07:58:56;60.38;;;23.95;;
74543;SDS011;63016;55.030;38.710;2024-03-02T08:01:26;58.30;;;25.70;;
74543;SDS011;63016;55.030;38.710;2024-03-02T08:03:59;57.80;;;24.15;;
74543;SDS011;63016;55.030;38.710;2024-03-02T08:06:26;60.15;;;26.48;;
74543;SDS011;63016;55.030;38.710;2024-03-02T08:08:56;59.63;;;25.35;;
74543;SDS011;63016;55.030;38.710;2024-03-02T08:11:23;59.13;;;24.75;;
74543;SDS011;63016;55.030;38.710;2024-03-02T08:13:48;55.15;;;23.60;;
74543;SDS011;63016;55.030;38.710;2024-03-02T08:16:15;62.40;;;25.65;;
74543;SDS011;63016;55.030;38.710;2024-03-02T08:18:44;54.13;;;24.63;;
74543;SDS011;63016;55.030;38.710;2024-03-02T08:21:11;55.28;;;25.02;;
74543;SDS011;63016;55.030;38.710;2024-03-02T08:23:37;57.53;;;25.98;;
74543;SDS011;63016;55.030;38.710;2024-03-02T08:26:03;53.75;;;25.55;;
74543;SDS011;63016;55.030;38.710;2024-03-02T08:28:29;60.47;;;25.55;;
74543;SDS011;63016;55.030;38.710;2024-03-02T08:30:55;57.67;;;26.73;;
74543;SDS011;63016;55.030;38.710;2024-03-02T08:33:21;57.80;;;25.95;;
74543;SDS011;63016;55.030;38.710;2024-03-02T08:35:46;61.97;;;26.25;;
74543;SDS011;63016;55.030;38.710;2024-03-02T08:38:12;59.45;;;26.13;;
74543;SDS011;63016;55.030;38.710;2024-03-02T08:40:37;54.97;;;25.98;;
74543;SDS011;63016;55.030;38.710;2024-03-02T08:43:03;56.88;;;25.52;;
74543;SDS011;63016;55.030;38.710;2024-03-02T08:45:29;57.40;;;26.20;;
74543;SDS011;63016;55.030;38.710;2024-03-02T08:47:54;60.28;;;25.77;;
74543;SDS011;63016;55.030;38.710;2024-03-02T08:50:20;53.88;;;24.58;;
74543;SDS011;63016;55.030;38.710;2024-03-02T08:52:45;57.20;;;24.25;;
74543;SDS011;63016;55.030;38.710;2024-03-02T08:55:11;56.75;;;23.80;;
74543;SDS011;63016;55.030;38.710;2024-03-02T08:57:37;52.38;;;23.67;;
74543;SDS011;63016;55.030;38.710;2024-03-02T09:00:02;48.05;;;23.48;;
74543;SDS011;63016;55.030;38.710;2024-03-02T09:02:30;46.25;;;22.52;;
74543;SDS011;63016;55.030;38.710;2024-03-02T09:04:56;51.05;;;23.17;;
74543;SDS011;63016;55.030;38.710;2024-03-02T09:07:22;48.28;;;22.10;;
74543;SDS011;63016;55.030;38.710;2024-03-02T09:09:47;45.85;;;22.77;;
74543;SDS011;63016;55.030;38.710;2024-03-02T09:12:13;51.33;;;23.35;;
74543;SDS011;63016;55.030;38.710;2024-03-02T09:14:38;45.78;;;22.73;;
74543;SDS011;63016;55.030;38.710;2024-03-02T09:17:04;53.75;;;24.70;;
74543;SDS011;63016;55.030;38.710;2024-03-02T09:19:29;49.22;;;22.83;;
74543;SDS011;63016;55.030;38.710;2024-03-02T09:21:55;42.20;;;21.25;;
74543;SDS011;63016;55.030;38.710;2024-03-02T09:24:21;44.25;;;22.67;;
74543;SDS011;63016;55.030;38.710;2024-03-02T09:26:47;45.88;;;22.27;;
74543;SDS011;63016;55.030;38.710;2024-03-02T09:29:12;46.22;;;22.30;;
74543;SDS011;63016;55.030;38.710;2024-03-02T09:31:41;47.95;;;22.08;;
74543;SDS011;63016;55.030;38.710;2024-03-02T09:34:07;43.90;;;21.42;;
74543;SDS011;63016;55.030;38.710;2024-03-02T09:39:17;48.17;;;22.95;;
74543;SDS011;63016;55.030;38.710;2024-03-02T09:41:43;53.28;;;23.27;;
74543;SDS011;63016;55.030;38.710;2024-03-02T09:44:09;48.00;;;23.02;;
74543;SDS011;63016;55.030;38.710;2024-03-02T09:46:35;44.30;;;21.77;;
74543;SDS011;63016;55.030;38.710;2024-03-02T09:49:02;44.10;;;21.25;;
74543;SDS011;63016;55.030;38.710;2024-03-02T09:51:27;49.00;;;22.77;;
74543;SDS011;63016;55.030;38.710;2024-03-02T09:53:54;47.60;;;22.27;;
74543;SDS011;63016;55.030;38.710;2024-03-02T09:56:23;43.80;;;20.77;;
74543;SDS011;63016;55.030;38.710;2024-03-02T09:58:49;48.60;;;21.05;;
74543;SDS011;63016;55.030;38.710;2024-03-02T10:01:14;43.55;;;21.33;;
74543;SDS011;63016;55.030;38.710;2024-03-02T10:03:40;45.30;;;20.33;;
74543;SDS011;63016;55.030;38.710;2024-03-02T10:06:21;50.85;;;21.23;;
74543;SDS011;63016;55.030;38.710;2024-03-02T10:08:48;45.83;;;22.27;;
74543;SDS011;63016;55.030;38.710;2024-03-02T10:11:27;42.42;;;21.67;;
74543;SDS011;63016;55.030;38.710;2024-03-02T10:14:04;41.40;;;20.77;;
74543;SDS011;63016;55.030;38.710;2024-03-02T10:16:30;45.63;;;20.70;;
74543;SDS011;63016;55.030;38.710;2024-03-02T10:18:55;44.45;;;20.65;;
74543;SDS011;63016;55.030;38.710;2024-03-02T10:21:21;44.88;;;21.23;;
74543;SDS011;63016;55.030;38.710;2024-03-02T10:23:49;39.03;;;20.10;;
74543;SDS011;63016;55.030;38.710;2024-03-02T10:26:17;42.67;;;20.63;;
74543;SDS011;63016;55.030;38.710;2024-03-02T10:28:46;39.70;;;20.42;;
74543;SDS011;63016;55.030;38.710;2024-03-02T10:31:13;42.25;;;20.15;;
74543;SDS011;63016;55.030;38.710;2024-03-02T10:33:39;44.17;;;20.40;;
74543;SDS011;63016;55.030;38.710;2024-03-02T10:36:05;43.90;;;19.77;;
74543;SDS011;63016;55.030;38.710;2024-03-02T10:38:30;39.28;;;19.60;;
74543;SDS011;63016;55.030;38.710;2024-03-02T10:40:57;40.88;;;19.67;;
74543;SDS011;63016;55.030;38.710;2024-03-02T10:43:24;39.92;;;19.38;;
74543;SDS011;63016;55.030;38.710;2024-03-02T10:45:51;40.45;;;20.42;;
74543;SDS011;63016;55.030;38.710;2024-03-02T10:48:19;40.97;;;19.92;;
74543;SDS011;63016;55.030;38.710;2024-03-02T10:50:46;42.42;;;19.45;;
74543;SDS011;63016;55.030;38.710;2024-03-02T10:53:12;38.28;;;18.92;;
74543;SDS011;63016;55.030;38.710;2024-03-02T10:55:37;41.17;;;19.45;;
74543;SDS011;63016;55.030;38.710;2024-03-02T10:58:04;38.00;;;20.05;;
74543;SDS011;63016;55.030;38.710;2024-03-02T11:00:33;44.22;;;20.48;;
74543;SDS011;63016;55.030;38.710;2024-03-02T11:03:07;42.33;;;19.88;;
74543;SDS011;63016;55.030;38.710;2024-03-02T11:05:39;37.42;;;19.67;;
74543;SDS011;63016;55.030;38.710;2024-03-02T11:08:10;46.47;;;19.67;;
74543;SDS011;63016;55.030;38.710;2024-03-02T11:10:49;41.55;;;19.98;;
74543;SDS011;63016;55.030;38.710;2024-03-02T11:13:16;39.63;;;19.90;;
74543;SDS011;63016;55.030;38.710;2024-03-02T11:15:59;37.13;;;19.77;;
74543;SDS011;63016;55.030;38.710;2024-03-02T11:18:30;39.22;;;19.08;;
74543;SDS011;63016;55.030;38.710;2024-03-02T11:20:57;44.30;;;19.60;;
74543;SDS011;63016;55.030;38.710;2024-03-02T11:23:34;36.58;;;18.88;;
74543;SDS011;63016;55.030;38.710;2024-03-02T11:28:45;41.42;;;19.27;;
74543;SDS011;63016;55.030;38.710;2024-03-02T11:31:11;37.17;;;18.45;;
74543;SDS011;63016;55.030;38.710;2024-03-02T11:33:36;35.42;;;18.48;;
74543;SDS011;63016;55.030;38.710;2024-03-02T11:36:02;40.40;;;18.77;;
74543;SDS011;63016;55.030;38.710;2024-03-02T11:38:29;38.63;;;19.35;;
74543;SDS011;63016;55.030;38.710;2024-03-02T11:41:00;39.95;;;19.42;;
74543;SDS011;63016;55.030;38.710;2024-03-02T11:43:33;40.50;;;19.88;;
74543;SDS011;63016;55.030;38.710;2024-03-02T11:46:04;38.88;;;20.25;;
74543;SDS011;63016;55.030;38.710;2024-03-02T11:48:34;39.28;;;19.67;;
74543;SDS011;63016;55.030;38.710;2024-03-02T11:51:01;41.72;;;19.92;;
74543;SDS011;63016;55.030;38.710;2024-03-02T11:53:27;39.17;;;20.25;;
74543;SDS011;63016;55.030;38.710;2024-03-02T11:55:57;40.28;;;19.48;;
74543;SDS011;63016;55.030;38.710;2024-03-02T11:58:24;40.60;;;19.45;;
74543;SDS011;63016;55.030;38.710;2024-03-02T12:00:51;42.03;;;19.30;;
74543;SDS011;63016;55.030;38.710;2024-03-02T12:03:21;36.05;;;18.50;;
74543;SDS011;63016;55.030;38.710;2024-03-02T12:05:49;38.88;;;19.63;;
74543;SDS011;63016;55.030;38.710;2024-03-02T12:08:15;38.78;;;18.80;;
74543;SDS011;63016;55.030;38.710;2024-03-02T12:10:41;36.83;;;18.83;;
74543;SDS011;63016;55.030;38.710;2024-03-02T12:13:09;37.80;;;19.00;;
74543;SDS011;63016;55.030;38.710;2024-03-02T12:15:36;36.20;;;19.10;;
74543;SDS011;63016;55.030;38.710;2024-03-02T12:18:03;37.65;;;18.45;;
74543;SDS011;63016;55.030;38.710;2024-03-02T12:20:30;38.45;;;19.50;;
74543;SDS011;63016;55.030;38.710;2024-03-02T12:22:57;35.88;;;17.63;;
74543;SDS011;63016;55.030;38.710;2024-03-02T12:25:24;33.35;;;16.85;;
74543;SDS011;63016;55.030;38.710;2024-03-02T12:27:51;34.42;;;16.38;;
74543;SDS011;63016;55.030;38.710;2024-03-02T12:30:19;34.13;;;16.17;;
74543;SDS011;63016;55.030;38.710;2024-03-02T12:32:46;28.73;;;14.70;;
74543;SDS011;63016;55.030;38.710;2024-03-02T12:35:12;30.02;;;15.07;;
74543;SDS011;63016;55.030;38.710;2024-03-02T12:37:42;31.80;;;15.30;;
74543;SDS011;63016;55.030;38.710;2024-03-02T12:40:10;34.15;;;17.58;;
74543;SDS011;63016;55.030;38.710;2024-03-02T12:42:37;38.28;;;17.85;;
74543;SDS011;63016;55.030;38.710;2024-03-02T12:45:02;36.72;;;18.88;;
74543;SDS011;63016;55.030;38.710;2024-03-02T12:47:29;34.72;;;18.23;;
74543;SDS011;63016;55.030;38.710;2024-03-02T12:49:54;37.63;;;18.65;;
74543;SDS011;63016;55.030;38.710;2024-03-02T12:52:21;36.70;;;18.92;;
74543;SDS011;63016;55.030;38.710;2024-03-02T12:54:47;37.88;;;18.65;;
74543;SDS011;63016;55.030;38.710;2024-03-02T12:57:19;38.30;;;19.80;;
74543;SDS011;63016;55.030;38.710;2024-03-02T12:59:45;40.88;;;20.35;;
74543;SDS011;63016;55.030;38.710;2024-03-02T13:02:16;42.72;;;21.00;;
74543;SDS011;63016;55.030;38.710;2024-03-02T13:04:42;46.00;;;22.00;;
74543;SDS011;63016;55.030;38.710;2024-03-02T13:07:08;45.53;;;21.42;;
74543;SDS011;63016;55.030;38.710;2024-03-02T13:09:34;45.97;;;22.35;;
74543;SDS011;63016;55.030;38.710;2024-03-02T13:12:00;48.55;;;22.70;;
74543;SDS011;63016;55.030;38.710;2024-03-02T13:14:26;44.38;;;23.40;;
74543;SDS011;63016;55.030;38.710;2024-03-02T13:16:51;50.28;;;23.27;;
74543;SDS011;63016;55.030;38.710;2024-03-02T13:19:22;51.67;;;23.50;;
74543;SDS011;63016;55.030;38.710;2024-03-02T13:21:47;45.45;;;23.15;;
74543;SDS011;63016;55.030;38.710;2024-03-02T13:24:13;53.10;;;23.98;;
74543;SDS011;63016;55.030;38.710;2024-03-02T13:26:38;44.80;;;22.98;;
74543;SDS011;63016;55.030;38.710;2024-03-02T13:29:05;46.17;;;21.95;;
74543;SDS011;63016;55.030;38.710;2024-03-02T13:31:30;45.83;;;22.80;;
74543;SDS011;63016;55.030;38.710;2024-03-02T13:33:56;50.70;;;23.23;;
74543;SDS011;63016;55.030;38.710;2024-03-02T13:36:21;48.60;;;21.92;;
74543;SDS011;63016;55.030;38.710;2024-03-02T13:38:47;48.47;;;23.23;;
74543;SDS011;63016;55.030;38.710;2024-03-02T13:41:12;48.33;;;23.13;;
74543;SDS011;63016;55.030;38.710;2024-03-02T13:43:38;51.67;;;22.88;;
74543;SDS011;63016;55.030;38.710;2024-03-02T13:46:04;45.92;;;22.58;;
74543;SDS011;63016;55.030;38.710;2024-03-02T13:48:31;47.80;;;23.30;;
74543;SDS011;63016;55.030;38.710;2024-03-02T13:50:57;50.53;;;23.85;;
74543;SDS011;63016;55.030;38.710;2024-03-02T13:53:22;57.17;;;24.08;;
74543;SDS011;63016;55.030;38.710;2024-03-02T13:55:48;51.53;;;24.30;;
74543;SDS011;63016;55.030;38.710;2024-03-02T13:58:14;47.13;;;23.15;;
74543;SDS011;63016;55.030;38.710;2024-03-02T14:00:40;47.30;;;23.80;;
74543;SDS011;63016;55.030;38.710;2024-03-02T14:03:08;50.42;;;23.67;;
74543;SDS011;63016;55.030;38.710;2024-03-02T14:05:34;51.67;;;22.70;;
74543;SDS011;63016;55.030;38.710;2024-03-02T14:07:59;54.53;;;24.20;;
74543;SDS011;63016;55.030;38.710;2024-03-02T14:10:29;51.63;;;22.98;;
74543;SDS011;63016;55.030;38.710;2024-03-02T14:12:54;47.35;;;23.25;;
74543;SDS011;63016;55.030;38.710;2024-03-02T14:15:20;51.50;;;23.58;;
74543;SDS011;63016;55.030;38.710;2024-03-02T14:17:47;48.28;;;22.67;;
74543;SDS011;63016;55.030;38.710;2024-03-02T14:20:12;48.42;;;22.08;;